createdAt,value
2018-09-12T00:00:40.418Z,76.68
2018-09-12T00:03:08.902Z,75.70
2018-09-12T00:05:37.722Z,73.88
2018-09-12T00:08:06.194Z,74.61
2018-09-12T00:10:34.883Z,74.09
2018-09-12T00:13:03.394Z,74.49
2018-09-12T00:15:32.259Z,75.48
2018-09-12T00:18:00.822Z,75.77
2018-09-12T00:20:29.414Z,76.04
2018-09-12T00:22:58.178Z,73.35
2018-09-12T00:25:26.834Z,72.20
2018-09-12T00:27:55.785Z,72.10
2018-09-12T00:30:24.254Z,71.68
2018-09-12T00:32:52.947Z,71.93
2018-09-12T00:35:21.553Z,72.02
2018-09-12T00:37:50.354Z,71.30
2018-09-12T00:40:18.854Z,71.34
2018-09-12T00:42:47.611Z,72.16
2018-09-12T00:45:16.209Z,72.47
2018-09-12T00:47:44.782Z,73.10
2018-09-12T00:50:13.476Z,72.14
2018-09-12T00:52:42.071Z,71.83
2018-09-12T00:55:10.809Z,73.23
2018-09-12T00:57:39.345Z,72.45
2018-09-12T01:00:07.887Z,72.98
2018-09-12T01:02:36.490Z,72.70
2018-09-12T01:05:05.046Z,72.13
2018-09-12T01:07:33.770Z,72.02
2018-09-12T01:10:02.309Z,71.86
2018-09-12T01:12:31.102Z,72.55
2018-09-12T01:14:59.630Z,71.25
2018-09-12T01:17:28.345Z,71.77
2018-09-12T01:19:56.882Z,71.29
2018-09-12T01:22:25.510Z,71.51
2018-09-12T01:24:54.069Z,72.56
2018-09-12T01:27:22.725Z,73.91
2018-09-12T01:29:51.509Z,72.74
2018-09-12T01:32:20.093Z,73.80
2018-09-12T01:34:48.730Z,72.56
2018-09-12T01:37:17.319Z,73.05
2018-09-12T01:39:45.905Z,73.06
2018-09-12T01:42:14.398Z,73.35
2018-09-12T01:44:43.038Z,74.02
2018-09-12T01:47:11.742Z,72.08
2018-09-12T01:49:40.277Z,72.64
2018-09-12T01:52:09.199Z,72.75
2018-09-12T01:54:37.862Z,71.84
2018-09-12T01:57:06.489Z,71.95
2018-09-12T01:59:35.067Z,72.32
2018-09-12T02:02:03.642Z,72.03
2018-09-12T02:04:32.284Z,72.59
2018-09-12T02:07:00.810Z,72.74
2018-09-12T02:09:29.717Z,72.60
2018-09-12T02:11:58.340Z,72.61
2018-09-12T02:14:26.939Z,72.41
2018-09-12T02:16:55.514Z,72.66
2018-09-12T02:19:24.119Z,73.30
2018-09-12T02:21:52.918Z,73.70
2018-09-12T02:24:21.664Z,73.43
2018-09-12T02:26:50.662Z,73.42
2018-09-12T02:29:19.133Z,74.00
2018-09-12T02:31:47.746Z,74.32
2018-09-12T02:34:16.425Z,74.86
2018-09-12T02:36:45.022Z,74.73
2018-09-12T02:39:13.591Z,74.17
2018-09-12T02:41:42.172Z,74.44
2018-09-12T02:44:11.270Z,74.59
2018-09-12T02:46:39.863Z,74.49
2018-09-12T02:49:08.403Z,73.92
2018-09-12T02:51:36.891Z,73.69
2018-09-12T02:54:05.679Z,72.69
2018-09-12T02:56:34.298Z,73.66
2018-09-12T02:59:02.930Z,74.45
2018-09-12T03:01:31.406Z,75.50
2018-09-12T03:04:16.486Z,74.93
2018-09-12T03:06:44.850Z,75.37
2018-09-12T03:09:13.744Z,75.03
2018-09-12T03:11:42.264Z,75.15
2018-09-12T03:14:10.894Z,75.49
2018-09-12T03:16:39.374Z,75.80
2018-09-12T03:19:08.009Z,75.68
2018-09-12T03:21:36.679Z,75.65
2018-09-12T03:24:05.266Z,76.09
2018-09-12T03:26:34.178Z,76.12
2018-09-12T03:29:02.683Z,75.04
2018-09-12T03:31:31.342Z,75.08
2018-09-12T03:33:59.923Z,75.53
2018-09-12T03:36:28.542Z,76.94
2018-09-12T03:38:57.113Z,76.95
2018-09-12T03:41:25.762Z,77.09
2018-09-12T03:43:54.757Z,76.78
2018-09-12T03:46:23.334Z,77.40
2018-09-12T03:48:52.011Z,76.56
2018-09-12T03:51:20.497Z,76.56
2018-09-12T03:53:49.199Z,76.09
2018-09-12T03:56:17.738Z,76.48
2018-09-12T03:58:46.351Z,77.19
2018-09-12T04:01:14.863Z,76.86
2018-09-12T04:03:43.455Z,76.50
2018-09-12T04:06:12.303Z,76.44
2018-09-12T04:08:40.791Z,76.59
2018-09-12T04:11:09.701Z,76.35
2018-09-12T04:13:38.234Z,75.94
2018-09-12T04:16:06.938Z,75.42
2018-09-12T04:18:35.524Z,76.04
2018-09-12T04:21:04.041Z,78.99
2018-09-12T04:23:33.218Z,79.62
2018-09-12T04:26:01.787Z,81.04
2018-09-12T04:28:30.586Z,83.15
2018-09-12T04:30:59.214Z,83.52
2018-09-12T04:33:28.158Z,84.31
2018-09-12T04:35:56.661Z,83.52
2018-09-12T04:38:25.242Z,84.46
2018-09-12T04:40:53.724Z,82.01
2018-09-12T04:43:22.482Z,81.44
2018-09-12T04:45:50.951Z,81.57
2018-09-12T04:48:19.586Z,80.58
2018-09-12T04:50:48.474Z,80.51
2018-09-12T04:53:16.939Z,80.63
2018-09-12T04:55:45.762Z,80.62
2018-09-12T04:58:14.224Z,80.72
2018-09-12T05:00:42.861Z,80.02
2018-09-12T05:03:11.342Z,79.87
2018-09-12T05:05:39.874Z,78.81
2018-09-12T05:08:08.434Z,78.88
2018-09-12T05:10:37.018Z,79.98
2018-09-12T05:13:05.884Z,79.36
2018-09-12T05:15:34.378Z,79.74
2018-09-12T05:18:03.218Z,79.55
2018-09-12T05:20:31.850Z,78.48
2018-09-12T05:23:00.614Z,78.38
2018-09-12T05:25:29.250Z,78.38
2018-09-12T05:27:57.718Z,79.05
2018-09-12T05:30:26.300Z,78.77
2018-09-12T05:32:54.770Z,79.22
2018-09-12T05:35:23.800Z,78.46
2018-09-12T05:37:52.343Z,77.80
2018-09-12T05:40:21.837Z,78.15
2018-09-12T05:42:50.450Z,77.88
2018-09-12T05:45:19.143Z,77.64
2018-09-12T05:47:47.716Z,77.33
2018-09-12T05:50:16.383Z,78.13
2018-09-12T05:52:45.279Z,77.78
2018-09-12T05:55:13.858Z,77.22
2018-09-12T05:57:42.762Z,77.36
2018-09-12T06:00:11.518Z,79.02
2018-09-12T06:02:40.246Z,79.95
2018-09-12T06:05:08.722Z,79.42
2018-09-12T06:07:39.887Z,79.97
2018-09-12T06:10:08.542Z,80.50
2018-09-12T06:12:37.224Z,81.03
2018-09-12T06:15:06.083Z,81.60
2018-09-12T06:17:35.632Z,83.21
2018-09-12T06:20:04.431Z,83.11
2018-09-12T06:22:33.598Z,83.08
2018-09-12T06:25:02.779Z,81.05
2018-09-12T06:27:31.708Z,80.89
2018-09-12T06:30:00.257Z,81.29
2018-09-12T06:32:28.882Z,81.03
2018-09-12T06:34:57.618Z,79.31
2018-09-12T06:37:30.665Z,78.37
2018-09-12T06:39:59.303Z,78.02
2018-09-12T06:42:27.814Z,77.85
2018-09-12T06:45:01.783Z,78.13
2018-09-12T06:47:31.355Z,78.55
2018-09-12T06:49:59.866Z,77.05
2018-09-12T06:52:28.730Z,76.55
2018-09-12T06:54:57.340Z,76.63
2018-09-12T06:57:25.857Z,79.34
2018-09-12T06:59:55.102Z,79.74
2018-09-12T07:02:23.597Z,79.95
2018-09-12T07:04:52.306Z,79.73
2018-09-12T07:07:20.786Z,80.55
2018-09-12T07:09:49.462Z,79.94
2018-09-12T07:12:18.786Z,79.25
2018-09-12T07:14:48.371Z,78.47
2018-09-12T07:17:21.154Z,77.54
2018-09-12T07:19:53.250Z,77.08
2018-09-12T07:22:26.124Z,76.32
2018-09-12T07:24:59.795Z,75.95
2018-09-12T07:27:32.247Z,75.48
2018-09-12T07:30:09.077Z,74.66
2018-09-12T07:32:39.879Z,75.10
2018-09-12T07:35:10.014Z,75.87
2018-09-12T07:37:41.907Z,75.35
2018-09-12T07:40:11.843Z,74.43
2018-09-12T07:42:45.398Z,74.17
2018-09-12T07:45:20.863Z,73.90
2018-09-12T07:47:58.769Z,72.98
2018-09-12T07:50:28.130Z,74.29
2018-09-12T07:53:01.244Z,73.90
2018-09-12T07:55:31.179Z,75.19
2018-09-12T07:58:04.377Z,75.94
2018-09-12T08:00:35.413Z,75.57
2018-09-12T08:03:07.650Z,75.21
2018-09-12T08:05:37.259Z,75.31
2018-09-12T08:08:11.458Z,76.48
2018-09-12T08:10:43.283Z,73.92
2018-09-12T08:13:14.595Z,74.28
2018-09-12T08:15:46.990Z,73.64
2018-09-12T08:18:16.847Z,72.77
2018-09-12T08:20:46.790Z,73.17
2018-09-12T08:23:15.617Z,71.54
2018-09-12T08:25:44.114Z,70.05
2018-09-12T08:28:12.823Z,69.59
2018-09-12T08:30:42.651Z,69.98
2018-09-12T08:33:11.394Z,67.34
2018-09-12T08:35:40.151Z,67.96
2018-09-12T08:38:08.715Z,67.61
2018-09-12T08:40:37.355Z,66.54
2018-09-12T08:43:05.990Z,68.28
2018-09-12T08:45:36.811Z,69.66
2018-09-12T08:48:05.698Z,72.51
2018-09-12T08:50:34.595Z,73.08
2018-09-12T08:53:07.263Z,73.94
2018-09-12T08:55:35.902Z,74.79
2018-09-12T08:58:04.476Z,74.37
2018-09-12T09:00:36.514Z,74.22
2018-09-12T09:03:06.711Z,74.68
2018-09-12T09:05:35.369Z,74.90
2018-09-12T09:08:03.950Z,74.79
2018-09-12T09:10:32.543Z,75.28
2018-09-12T09:13:01.171Z,75.44
2018-09-12T09:15:32.874Z,76.74
2018-09-12T09:18:01.531Z,76.56
2018-09-12T09:20:30.140Z,76.85
2018-09-12T09:23:02.697Z,76.14
2018-09-12T09:25:31.670Z,75.42
2018-09-12T09:28:00.259Z,75.73
2018-09-12T09:30:32.138Z,75.60
2018-09-12T09:33:00.975Z,75.70
2018-09-12T09:35:30.157Z,75.86
2018-09-12T09:38:02.146Z,75.15
2018-09-12T09:40:30.670Z,75.69
2018-09-12T09:42:59.525Z,76.01
2018-09-12T09:45:28.113Z,74.66
2018-09-12T09:47:56.795Z,74.04
2018-09-12T09:50:25.491Z,72.71
2018-09-12T09:52:54.038Z,71.96
2018-09-12T09:55:22.602Z,70.19
2018-09-12T09:57:51.090Z,69.46
2018-09-12T10:00:24.984Z,70.80
2018-09-12T10:02:58.787Z,70.91
2018-09-12T10:05:32.590Z,70.94
2018-09-12T10:09:05.991Z,71.21
2018-09-12T10:11:34.682Z,71.19
2018-09-12T10:14:03.242Z,71.56
2018-09-12T10:16:31.861Z,69.73
2018-09-12T10:19:00.581Z,70.08
2018-09-12T10:21:29.058Z,70.19
2018-09-12T10:23:57.898Z,69.41
2018-09-12T10:26:26.482Z,68.93
2018-09-12T10:28:55.330Z,69.58
2018-09-12T10:31:23.955Z,69.36
2018-09-12T10:33:52.750Z,69.02
2018-09-12T10:36:21.427Z,70.43
2018-09-12T10:38:50.860Z,71.06
2018-09-12T10:41:20.133Z,70.97
2018-09-12T10:43:48.780Z,70.01
2018-09-12T10:46:17.427Z,68.12
2018-09-12T10:48:46.095Z,63.61
2018-09-12T10:51:15.926Z,59.52
2018-09-12T10:53:45.501Z,59.66
2018-09-12T10:56:14.203Z,60.15
2018-09-12T10:58:42.674Z,57.26
2018-09-12T11:01:11.498Z,55.67
2018-09-12T11:03:40.078Z,58.10
2018-09-12T11:06:08.928Z,54.34
2018-09-12T11:08:37.626Z,53.09
2018-09-12T11:11:06.301Z,53.95
2018-09-12T11:13:35.291Z,54.74
2018-09-12T11:16:03.794Z,54.57
2018-09-12T11:18:32.560Z,53.55
2018-09-12T11:21:01.074Z,55.66
2018-09-12T11:23:29.719Z,55.32
2018-09-12T11:25:58.198Z,55.53
2018-09-12T11:28:27.359Z,55.02
2018-09-12T11:30:55.877Z,56.62
2018-09-12T11:33:24.406Z,57.45
2018-09-12T11:35:53.794Z,56.20
2018-09-12T11:38:23.310Z,55.89
2018-09-12T11:40:52.174Z,55.99
2018-09-12T11:43:20.650Z,56.57
2018-09-12T11:45:49.122Z,55.52
2018-09-12T11:48:17.854Z,56.22
2018-09-12T11:50:48.648Z,56.63
2018-09-12T11:53:17.249Z,56.09
2018-09-12T11:55:45.866Z,55.65
2018-09-12T11:58:14.442Z,57.61
2018-09-12T12:00:43.090Z,56.00
2018-09-12T12:03:12.074Z,56.47
2018-09-12T12:05:40.654Z,56.01
2018-09-12T12:08:09.541Z,54.14
2018-09-12T12:10:40.273Z,55.17
2018-09-12T12:13:08.950Z,57.09
2018-09-12T12:15:38.160Z,56.36
2018-09-12T12:18:06.742Z,56.70
2018-09-12T12:20:35.246Z,55.67
2018-09-12T12:23:03.893Z,53.08
2018-09-12T12:25:32.321Z,53.28
2018-09-12T12:28:00.876Z,57.26
2018-09-12T12:30:30.102Z,59.88
2018-09-12T12:32:58.751Z,59.68
2018-09-12T12:35:27.685Z,57.78
2018-09-12T12:37:57.657Z,56.17
2018-09-12T12:40:26.507Z,55.48
2018-09-12T12:42:55.482Z,56.59
2018-09-12T12:45:26.440Z,57.55
2018-09-12T12:47:54.958Z,58.92
2018-09-12T12:50:24.218Z,57.30
2018-09-12T12:52:53.147Z,57.02
2018-09-12T12:55:21.863Z,57.81
2018-09-12T12:57:50.429Z,57.30
2018-09-12T13:00:18.967Z,58.64
2018-09-12T13:02:47.683Z,56.14
2018-09-12T13:05:16.267Z,56.03
2018-09-12T13:07:45.470Z,55.81
2018-09-12T13:10:13.959Z,55.30
2018-09-12T13:12:42.736Z,55.30
2018-09-12T13:15:11.233Z,56.15
2018-09-12T13:17:41.421Z,57.37
2018-09-12T13:20:09.946Z,56.37
2018-09-12T13:22:38.647Z,56.38
2018-09-12T13:25:07.260Z,56.84
2018-09-12T13:27:35.794Z,56.67
2018-09-12T13:30:04.742Z,56.13
2018-09-12T13:32:33.303Z,56.92
2018-09-12T13:35:02.312Z,57.55
2018-09-12T13:37:30.841Z,57.58
2018-09-12T13:39:59.482Z,57.84
2018-09-12T13:42:28.182Z,57.42
2018-09-12T13:44:56.710Z,58.06
2018-09-12T13:47:25.358Z,59.71
2018-09-12T13:49:53.946Z,61.36
2018-09-12T13:52:22.919Z,61.61
2018-09-12T13:54:51.404Z,59.56
2018-09-12T13:57:20.197Z,59.80
2018-09-12T13:59:48.970Z,58.49
2018-09-12T14:02:17.611Z,57.41
2018-09-12T14:04:46.251Z,56.25
2018-09-12T14:07:14.832Z,56.30
2018-09-12T14:09:43.519Z,58.66
2018-09-12T14:12:12.805Z,57.43
2018-09-12T14:14:42.018Z,57.75
2018-09-12T14:17:10.506Z,57.76
2018-09-12T14:19:39.146Z,56.28
2018-09-12T14:22:07.723Z,54.15
2018-09-12T14:24:36.372Z,55.72
2018-09-12T14:27:05.003Z,55.30
2018-09-12T14:29:33.614Z,55.52
2018-09-12T14:32:02.644Z,56.50
2018-09-12T14:34:31.209Z,57.69
2018-09-12T14:37:00.054Z,58.49
2018-09-12T14:39:28.567Z,57.83
2018-09-12T14:41:57.183Z,56.21
2018-09-12T14:44:28.491Z,55.92
2018-09-12T14:46:57.237Z,56.54
2018-09-12T14:49:25.709Z,59.01
2018-09-12T14:51:54.336Z,65.43
2018-09-12T14:54:22.890Z,68.97
2018-09-12T14:56:51.370Z,70.30
2018-09-12T14:59:20.210Z,70.63
2018-09-12T15:01:48.921Z,71.21
2018-09-12T15:04:18.079Z,71.76
2018-09-12T15:06:46.603Z,70.04
2018-09-12T15:09:15.278Z,69.86
2018-09-12T15:11:43.934Z,70.14
2018-09-12T15:14:13.503Z,69.27
2018-09-12T15:16:42.960Z,69.62
2018-09-12T15:19:11.466Z,68.01
2018-09-12T15:21:40.018Z,64.80
2018-09-12T15:24:09.809Z,65.05
2018-09-12T15:26:38.641Z,63.25
2018-09-12T15:29:07.217Z,63.05
2018-09-12T15:31:36.787Z,62.18
2018-09-12T15:34:06.094Z,62.84
2018-09-12T15:36:34.799Z,62.61
2018-09-12T15:39:03.430Z,61.19
2018-09-12T15:41:32.206Z,60.68
2018-09-12T15:44:00.650Z,62.10
2018-09-12T15:46:29.258Z,62.49
2018-09-12T15:48:58.084Z,61.02
2018-09-12T15:51:26.575Z,60.57
2018-09-12T15:53:55.306Z,60.16
2018-09-12T15:56:23.988Z,61.59
2018-09-12T15:58:52.559Z,62.26
2018-09-12T16:01:21.024Z,62.35
2018-09-12T16:03:49.700Z,63.14
2018-09-12T16:06:18.178Z,62.78
2018-09-12T16:08:46.693Z,63.76
2018-09-12T16:11:15.482Z,64.22
2018-09-12T16:13:44.125Z,65.16
2018-09-12T16:16:12.931Z,64.92
2018-09-12T16:18:41.510Z,65.08
2018-09-12T16:21:10.118Z,65.12
2018-09-12T16:23:38.614Z,65.66
2018-09-12T16:26:07.186Z,64.48
2018-09-12T16:28:35.834Z,63.74
2018-09-12T16:31:04.334Z,63.76
2018-09-12T16:33:32.949Z,62.87
2018-09-12T16:36:01.682Z,63.36
2018-09-12T16:38:30.218Z,62.02
2018-09-12T16:40:58.755Z,62.97
2018-09-12T16:43:27.241Z,63.66
2018-09-12T16:45:56.026Z,62.54
2018-09-12T16:48:24.506Z,61.64
2018-09-12T16:50:53.338Z,62.18
2018-09-12T16:53:21.968Z,62.53
2018-09-12T16:55:51.228Z,62.23
2018-09-12T16:58:19.754Z,62.92
2018-09-12T17:00:48.290Z,63.01
2018-09-12T17:03:17.027Z,63.45
2018-09-12T17:05:45.559Z,63.44
2018-09-12T17:08:14.307Z,63.93
2018-09-12T17:10:43.050Z,64.03
2018-09-12T17:13:11.988Z,65.13
2018-09-12T17:15:40.560Z,65.49
2018-09-12T17:18:09.154Z,64.70
2018-09-12T17:20:37.650Z,64.57
2018-09-12T17:23:06.318Z,65.05
2018-09-12T17:25:35.046Z,64.93
2018-09-12T17:28:03.535Z,65.73
2018-09-12T17:30:32.210Z,66.36
2018-09-12T17:33:00.934Z,67.20
2018-09-12T17:35:29.661Z,67.46
2018-09-12T17:37:58.271Z,67.31
2018-09-12T17:40:26.819Z,67.99
2018-09-12T17:42:56.479Z,68.99
2018-09-12T17:45:25.030Z,69.06
2018-09-12T17:47:54.041Z,69.05
2018-09-12T17:50:23.172Z,68.68
2018-09-12T17:52:52.258Z,68.39
2018-09-12T17:55:20.874Z,68.78
2018-09-12T17:57:49.852Z,68.47
2018-09-12T18:00:18.411Z,68.09
2018-09-12T18:02:47.126Z,68.65
2018-09-12T18:05:15.713Z,68.90
2018-09-12T18:07:44.286Z,69.80
2018-09-12T18:10:13.014Z,70.11
2018-09-12T18:12:41.487Z,70.07
2018-09-12T18:15:10.427Z,70.61
2018-09-12T18:17:39.060Z,70.91
2018-09-12T18:20:07.756Z,72.10
2018-09-12T18:22:36.422Z,74.73
2018-09-12T18:25:05.070Z,77.89
2018-09-12T18:27:33.665Z,78.90
2018-09-12T18:30:02.227Z,80.46
2018-09-12T18:32:31.590Z,82.20
2018-09-12T18:35:00.184Z,82.14
2018-09-12T18:37:29.310Z,81.54
2018-09-12T18:39:57.996Z,82.85
2018-09-12T18:42:26.931Z,81.61
2018-09-12T18:44:56.130Z,80.67
2018-09-12T18:47:25.026Z,80.51
2018-09-12T18:49:54.150Z,79.76
2018-09-12T18:52:23.111Z,80.29
2018-09-12T18:54:51.655Z,80.98
2018-09-12T18:57:20.534Z,79.08
2018-09-12T18:59:49.078Z,77.56
2018-09-12T19:02:17.719Z,77.48
2018-09-12T19:04:46.283Z,77.03
2018-09-12T19:07:14.968Z,77.24
2018-09-12T19:09:43.632Z,76.81
2018-09-12T19:12:12.850Z,76.32
2018-09-12T19:14:41.638Z,76.27
2018-09-12T19:17:10.195Z,76.28
2018-09-12T19:19:39.138Z,76.67
2018-09-12T19:22:08.352Z,77.40
2018-09-12T19:24:37.242Z,76.92
2018-09-12T19:27:05.838Z,77.55
2018-09-12T19:29:34.624Z,77.80
2018-09-12T19:32:03.265Z,76.84
2018-09-12T19:34:31.832Z,77.25
2018-09-12T19:37:00.430Z,76.97
2018-09-12T19:39:28.914Z,76.09
2018-09-12T19:41:57.554Z,76.23
2018-09-12T19:44:25.987Z,75.76
2018-09-12T19:46:54.776Z,76.12
2018-09-12T19:49:24.069Z,75.87
2018-09-12T19:51:52.667Z,75.36
2018-09-12T19:54:21.255Z,75.72
2018-09-12T19:56:49.848Z,75.69
2018-09-12T19:59:18.805Z,75.48
2018-09-12T20:01:47.327Z,75.86
2018-09-12T20:04:16.035Z,76.34
2018-09-12T20:06:44.648Z,76.05
2018-09-12T20:09:13.254Z,75.89
2018-09-12T20:11:42.111Z,75.39
2018-09-12T20:14:11.467Z,75.92
2018-09-12T20:16:40.111Z,76.17
2018-09-12T20:19:08.789Z,76.34
2018-09-12T20:21:37.546Z,75.74
2018-09-12T20:24:06.202Z,76.26
2018-09-12T20:26:34.952Z,76.08
2018-09-12T20:29:03.650Z,75.66
2018-09-12T20:31:32.168Z,76.01
2018-09-12T20:34:00.689Z,76.62
2018-09-12T20:36:29.376Z,75.86
2018-09-12T20:38:57.968Z,76.24
2018-09-12T20:41:26.486Z,76.05
2018-09-12T20:43:55.466Z,75.28
2018-09-12T20:46:24.035Z,75.75
2018-09-12T20:48:52.807Z,75.73
2018-09-12T20:51:21.387Z,75.86
2018-09-12T20:53:49.903Z,75.64
2018-09-12T20:56:18.539Z,75.08
2018-09-12T20:58:47.028Z,75.26
2018-09-12T21:01:15.647Z,74.55
2018-09-12T21:03:44.302Z,74.96
2018-09-12T21:06:12.987Z,73.87
2018-09-12T21:08:41.506Z,74.62
2018-09-12T21:11:10.314Z,74.50
2018-09-12T21:13:38.941Z,75.48
2018-09-12T21:16:07.590Z,75.50
2018-09-12T21:18:36.114Z,76.30
2018-09-12T21:21:04.759Z,76.51
2018-09-12T21:23:33.477Z,75.40
2018-09-12T21:26:01.959Z,74.18
2018-09-12T21:28:30.847Z,73.54
2018-09-12T21:30:59.481Z,72.05
2018-09-12T21:33:28.413Z,72.47
2018-09-12T21:35:56.914Z,73.25
2018-09-12T21:38:25.666Z,73.49
2018-09-12T21:40:54.389Z,73.73
2018-09-12T21:43:22.910Z,73.47
2018-09-12T21:45:51.529Z,74.37
2018-09-12T21:48:20.039Z,75.28
2018-09-12T21:50:48.809Z,74.64
2018-09-12T21:53:18.239Z,74.12
2018-09-12T21:55:46.968Z,74.40
2018-09-12T21:58:15.530Z,74.13
2018-09-12T22:00:44.194Z,74.41
2018-09-12T22:03:12.750Z,74.58
2018-09-12T22:05:41.274Z,75.63
2018-09-12T22:08:09.997Z,74.79
2018-09-12T22:10:38.599Z,74.72
2018-09-12T22:13:07.366Z,73.24
2018-09-12T22:15:35.886Z,72.85
2018-09-12T22:18:04.622Z,72.62
2018-09-12T22:20:33.258Z,73.23
2018-09-12T22:23:01.835Z,73.73
2018-09-12T22:25:30.546Z,73.19
2018-09-12T22:27:59.759Z,73.05
2018-09-12T22:30:28.250Z,72.94
2018-09-12T22:32:57.018Z,72.23
2018-09-12T22:35:25.797Z,71.32
2018-09-12T22:37:54.490Z,70.98
2018-09-12T22:40:23.190Z,71.41
2018-09-12T22:42:51.817Z,71.78
2018-09-12T22:45:20.658Z,72.94
2018-09-12T22:47:49.134Z,73.50
2018-09-12T22:50:17.792Z,73.53
2018-09-12T22:52:46.250Z,72.18
2018-09-12T22:55:14.725Z,71.50
2018-09-12T22:57:43.326Z,71.92
2018-09-12T23:00:11.999Z,72.13
2018-09-12T23:02:40.830Z,72.63
2018-09-12T23:05:09.408Z,72.10
2018-09-12T23:07:38.214Z,70.93
2018-09-12T23:10:06.753Z,70.62
2018-09-12T23:12:35.358Z,70.44
2018-09-12T23:15:04.191Z,69.96
2018-09-12T23:17:32.701Z,70.31
2018-09-12T23:20:01.382Z,70.88
2018-09-12T23:22:30.002Z,71.63
2018-09-12T23:24:58.756Z,71.96
2018-09-12T23:27:27.488Z,73.26
2018-09-12T23:29:56.146Z,73.19
2018-09-12T23:32:24.710Z,74.06
2018-09-12T23:34:53.206Z,74.09
2018-09-12T23:37:21.814Z,74.86
2018-09-12T23:39:50.347Z,76.24
2018-09-12T23:42:19.155Z,75.96
2018-09-12T23:44:47.832Z,76.21
2018-09-12T23:47:16.804Z,75.93
2018-09-12T23:49:45.396Z,76.01
2018-09-12T23:52:14.310Z,75.51
2018-09-12T23:54:42.774Z,75.26
2018-09-12T23:57:11.338Z,75.48
2018-09-12T23:59:39.933Z,75.15
